Time;durP1;ratioP1;P1;durP2;ratioP2;P2;SDS_P1;SDS_P2;PMS_P1;PMS_P2;Temp;Humidity;BMP_temperature;BMP_pressure;BME280_temperature;BME280_humidity;BME280_pressure;Samples;Min_cycle;Max_cycle;Signal;HPM_P1;HPM_P2
2021/06/30 00:00:37;;;;;;;2.50;2.40;;;16.80;99.90;;;;;;6185408;23;20808;-89
2021/06/30 00:03:04;;;;;;;2.87;2.60;;;16.70;99.90;;;;;;6185134;23;20412;-89
2021/06/30 00:05:31;;;;;;;5.13;2.73;;;16.70;99.90;;;;;;6185537;23;20742;-89
2021/06/30 00:07:59;;;;;;;3.03;2.70;;;16.70;99.90;;;;;;6185509;23;20416;-89
2021/06/30 00:10:26;;;;;;;2.80;2.63;;;16.70;99.90;;;;;;6185447;23;20535;-89
2021/06/30 00:12:52;;;;;;;3.87;2.60;;;16.70;99.90;;;;;;6185238;23;20418;-89
2021/06/30 00:15:22;;;;;;;2.70;2.13;;;16.70;99.90;;;;;;6185609;23;20475;-89
2021/06/30 00:17:49;;;;;;;2.80;2.60;;;16.70;99.90;;;;;;6185423;23;20418;-89
2021/06/30 00:20:16;;;;;;;2.83;2.30;;;16.60;99.90;;;;;;6185609;23;20438;-89
2021/06/30 00:22:43;;;;;;;2.87;2.47;;;16.60;99.90;;;;;;6184642;23;20427;-89
2021/06/30 00:25:12;;;;;;;2.40;2.20;;;16.70;99.90;;;;;;6185502;23;20502;-89
2021/06/30 00:27:39;;;;;;;3.10;2.90;;;16.60;99.90;;;;;;6185166;23;20410;-89
2021/06/30 00:30:07;;;;;;;2.27;2.17;;;16.60;99.90;;;;;;6186634;23;20842;-90
2021/06/30 00:32:34;;;;;;;2.07;1.80;;;16.60;99.90;;;;;;6185659;23;20412;-89
2021/06/30 00:35:01;;;;;;;2.30;1.70;;;16.60;99.90;;;;;;6185705;23;20506;-89
2021/06/30 00:37:27;;;;;;;2.80;2.20;;;16.40;99.90;;;;;;6185174;23;20410;-89
2021/06/30 00:39:54;;;;;;;2.70;2.50;;;16.40;99.90;;;;;;6185093;23;20422;-89
2021/06/30 00:42:22;;;;;;;2.83;2.63;;;16.40;99.90;;;;;;6184607;23;21009;-89
2021/06/30 00:44:49;;;;;;;3.50;2.93;;;16.40;99.90;;;;;;6185328;23;20419;-89
2021/06/30 00:47:17;;;;;;;1.97;1.80;;;16.40;99.90;;;;;;6185400;23;20415;-89
2021/06/30 00:49:44;;;;;;;2.60;1.70;;;16.40;99.90;;;;;;6185229;23;20533;-89
2021/06/30 00:52:11;;;;;;;2.03;1.93;;;16.40;99.90;;;;;;6184675;23;20414;-89
2021/06/30 00:54:38;;;;;;;2.03;1.90;;;16.30;99.90;;;;;;6184979;23;20418;-89
2021/06/30 00:57:05;;;;;;;2.67;1.80;;;16.30;99.90;;;;;;6185219;23;20453;-90
2021/06/30 00:59:33;;;;;;;1.80;1.70;;;16.30;99.90;;;;;;6184545;23;21034;-89
2021/06/30 01:02:00;;;;;;;2.17;1.97;;;16.20;99.90;;;;;;6184469;23;20426;-90
2021/06/30 01:04:27;;;;;;;2.37;2.17;;;16.20;99.90;;;;;;6185202;23;20418;-89
2021/06/30 01:06:54;;;;;;;1.67;1.57;;;16.20;99.90;;;;;;6185120;23;20903;-89
2021/06/30 01:09:21;;;;;;;1.77;1.30;;;16.20;99.90;;;;;;6184969;23;21134;-89
2021/06/30 01:11:48;;;;;;;1.93;1.83;;;16.20;99.90;;;;;;6184679;23;20418;-89
2021/06/30 01:14:25;;;;;;;1.60;1.50;;;16.20;99.90;;;;;;6185291;23;20411;-89
2021/06/30 01:16:53;;;;;;;2.00;1.80;;;16.10;99.90;;;;;;6185676;23;20398;-89
2021/06/30 01:19:22;;;;;;;1.83;1.70;;;16.10;99.90;;;;;;6185500;23;20425;-89
2021/06/30 01:21:50;;;;;;;1.40;1.27;;;16.10;99.90;;;;;;6185404;23;20421;-89
2021/06/30 01:24:19;;;;;;;1.60;1.50;;;16.10;99.90;;;;;;6185450;23;20409;-89
2021/06/30 01:26:47;;;;;;;4.17;1.27;;;16.10;99.90;;;;;;6184807;23;20432;-89
2021/06/30 01:29:14;;;;;;;1.70;1.60;;;16.20;99.90;;;;;;6185339;23;20453;-88
2021/06/30 01:31:41;;;;;;;2.30;1.40;;;16.10;99.90;;;;;;6184402;23;20427;-88
2021/06/30 01:34:08;;;;;;;1.30;1.30;;;16.10;99.90;;;;;;6186400;23;20405;-88
2021/06/30 01:36:44;;;;;;;2.43;1.40;;;16.00;99.90;;;;;;6186503;23;20412;-88
2021/06/30 01:39:11;;;;;;;1.90;1.80;;;16.00;99.90;;;;;;6186413;23;20425;-88
2021/06/30 01:41:39;;;;;;;2.03;1.90;;;15.90;99.90;;;;;;6186094;23;20413;-87
2021/06/30 01:44:06;;;;;;;1.60;1.17;;;15.80;99.90;;;;;;6186573;23;20713;-88
2021/06/30 01:46:33;;;;;;;1.30;1.30;;;15.80;99.90;;;;;;6186590;23;20503;-89
2021/06/30 01:49:01;;;;;;;0.90;0.87;;;15.60;99.90;;;;;;6185941;23;20966;-88
2021/06/30 01:51:27;;;;;;;0.80;0.80;;;15.30;99.90;;;;;;6185963;23;20443;-87
2021/06/30 01:53:56;;;;;;;2.50;0.90;;;15.30;99.90;;;;;;6186337;23;20418;-87
2021/06/30 01:56:24;;;;;;;4.43;1.30;;;15.20;99.90;;;;;;6185938;23;20416;-86
2021/06/30 01:59:34;;;;;;;2.00;1.40;;;15.20;99.90;;;;;;6186603;23;20433;-86
2021/06/30 02:02:02;;;;;;;0.67;0.67;;;15.00;99.90;;;;;;6185770;23;20420;-86
2021/06/30 02:04:29;;;;;;;0.80;0.80;;;14.90;99.90;;;;;;6186588;23;20411;-86
2021/06/30 02:06:56;;;;;;;1.47;1.10;;;14.80;99.90;;;;;;6184935;23;20417;-86
2021/06/30 02:09:22;;;;;;;1.17;1.07;;;14.60;99.90;;;;;;6202211;22;20468;-84
2021/06/30 02:11:49;;;;;;;1.30;1.20;;;14.60;99.90;;;;;;6225191;23;20412;-84
2021/06/30 02:14:16;;;;;;;1.40;1.10;;;14.60;99.90;;;;;;6225487;23;20420;-84
2021/06/30 02:16:44;;;;;;;1.80;1.30;;;14.70;99.90;;;;;;6226154;23;20476;-85
2021/06/30 02:19:11;;;;;;;1.77;1.53;;;14.70;99.90;;;;;;6225555;23;20428;-84
2021/06/30 02:21:39;;;;;;;1.50;1.40;;;14.60;99.90;;;;;;6225710;23;20464;-84
2021/06/30 02:24:06;;;;;;;1.53;1.13;;;14.60;99.90;;;;;;6225662;23;20432;-84
2021/06/30 02:26:34;;;;;;;1.03;0.97;;;14.60;99.90;;;;;;6224572;23;20409;-84
2021/06/30 02:29:01;;;;;;;2.10;1.30;;;14.60;99.90;;;;;;6222699;23;20424;-87
2021/06/30 02:31:28;;;;;;;1.13;1.00;;;14.60;99.90;;;;;;6220569;23;20419;-87
2021/06/30 02:33:57;;;;;;;1.17;1.10;;;14.50;99.90;;;;;;6225342;23;20413;-87
2021/06/30 02:36:23;;;;;;;0.93;0.93;;;14.40;99.90;;;;;;6221289;23;20737;-87
2021/06/30 02:38:50;;;;;;;0.93;0.77;;;14.40;99.90;;;;;;6223044;23;20441;-85
2021/06/30 02:41:17;;;;;;;1.00;1.00;;;14.40;99.90;;;;;;6226482;23;20449;-84
2021/06/30 02:43:44;;;;;;;0.70;0.70;;;14.40;99.90;;;;;;6225362;23;20881;-85
2021/06/30 02:46:11;;;;;;;1.40;0.87;;;14.50;99.90;;;;;;6225487;23;20798;-84
2021/06/30 02:48:38;;;;;;;1.80;0.90;;;14.30;99.90;;;;;;6225244;23;20425;-85
2021/06/30 02:51:06;;;;;;;1.10;0.90;;;14.30;99.90;;;;;;6225451;23;20411;-85
2021/06/30 02:53:33;;;;;;;0.80;0.80;;;14.30;99.90;;;;;;6224593;23;20417;-85
2021/06/30 02:56:01;;;;;;;0.90;0.90;;;14.30;99.90;;;;;;6225419;23;20416;-83
2021/06/30 02:58:29;;;;;;;0.80;0.80;;;14.30;99.90;;;;;;6226638;23;20476;-85
2021/06/30 03:00:55;;;;;;;0.80;0.80;;;14.30;99.90;;;;;;6226213;23;20440;-84
2021/06/30 03:03:22;;;;;;;0.73;0.73;;;14.30;99.90;;;;;;6222950;23;20422;-86
2021/06/30 03:05:49;;;;;;;0.80;0.80;;;14.20;99.90;;;;;;6223035;23;20413;-86
2021/06/30 03:08:17;;;;;;;1.13;1.00;;;14.10;99.90;;;;;;6223098;23;20417;-86
2021/06/30 03:10:44;;;;;;;1.60;1.50;;;14.20;99.90;;;;;;6222996;23;20744;-86
2021/06/30 03:13:10;;;;;;;0.80;0.80;;;14.20;99.90;;;;;;6222596;23;20409;-86
2021/06/30 03:15:37;;;;;;;1.70;1.00;;;14.10;99.90;;;;;;6223084;23;20414;-84
2021/06/30 03:18:04;;;;;;;0.90;0.90;;;14.20;99.90;;;;;;6223792;23;20413;-86
2021/06/30 03:20:31;;;;;;;1.10;0.87;;;14.20;99.90;;;;;;6222257;23;20453;-86
2021/06/30 03:22:58;;;;;;;0.90;0.90;;;14.20;99.90;;;;;;6222503;23;20744;-86
2021/06/30 03:25:26;;;;;;;0.80;0.80;;;14.10;99.90;;;;;;6222875;23;20915;-86
2021/06/30 03:27:53;;;;;;;0.50;0.50;;;14.10;99.90;;;;;;6223318;23;20417;-86
2021/06/30 03:30:20;;;;;;;1.23;0.93;;;14.10;99.90;;;;;;6227054;23;20981;-86
2021/06/30 03:32:47;;;;;;;1.43;0.70;;;14.10;99.90;;;;;;6226853;23;20409;-86
2021/06/30 03:35:14;;;;;;;0.73;0.70;;;14.10;99.90;;;;;;6227585;23;20409;-85
2021/06/30 03:37:41;;;;;;;1.43;0.90;;;14.00;99.90;;;;;;6227619;23;20441;-85
2021/06/30 03:40:09;;;;;;;1.33;0.80;;;14.10;99.90;;;;;;6228838;23;20459;-83
2021/06/30 03:42:37;;;;;;;0.53;0.53;;;14.10;99.90;;;;;;6225896;23;20421;-84
2021/06/30 03:45:05;;;;;;;0.80;0.80;;;14.00;99.90;;;;;;6224214;23;20419;-84
2021/06/30 03:47:32;;;;;;;0.77;0.77;;;14.00;99.90;;;;;;6223979;23;20435;-83
2021/06/30 03:49:59;;;;;;;0.90;0.90;;;14.00;99.90;;;;;;6223961;23;20930;-85
2021/06/30 03:52:26;;;;;;;0.93;0.73;;;14.00;99.90;;;;;;6223269;23;20444;-86
2021/06/30 03:54:54;;;;;;;1.73;0.73;;;14.00;99.90;;;;;;6224055;23;20417;-86
2021/06/30 03:57:21;;;;;;;1.20;0.93;;;14.00;99.90;;;;;;6224360;23;20428;-86
2021/06/30 03:59:49;;;;;;;1.50;1.40;;;14.10;99.90;;;;;;6224534;23;20452;-86
2021/06/30 04:02:16;;;;;;;0.60;0.60;;;14.20;99.90;;;;;;6224873;23;20492;-84
2021/06/30 04:04:43;;;;;;;1.17;0.87;;;14.20;99.90;;;;;;6224661;23;20423;-86
2021/06/30 04:07:09;;;;;;;1.57;0.80;;;14.10;99.90;;;;;;6230876;23;20409;-82
2021/06/30 04:09:36;;;;;;;0.80;0.80;;;14.10;99.90;;;;;;6241005;23;20441;-81
2021/06/30 04:12:04;;;;;;;1.20;1.10;;;14.00;99.90;;;;;;6239770;23;20417;-81
2021/06/30 04:14:31;;;;;;;1.60;1.10;;;14.10;99.90;;;;;;6242288;23;20472;-81
2021/06/30 04:16:59;;;;;;;0.67;0.67;;;14.10;99.90;;;;;;6241078;23;20469;-82
2021/06/30 04:19:25;;;;;;;1.03;0.63;;;14.10;99.90;;;;;;6241640;23;20524;-83
2021/06/30 04:21:52;;;;;;;1.43;1.00;;;14.10;99.90;;;;;;6240982;23;20469;-81
2021/06/30 04:24:19;;;;;;;1.00;0.90;;;14.10;99.90;;;;;;6240867;23;20408;-82
2021/06/30 04:26:46;;;;;;;0.70;0.70;;;14.10;99.90;;;;;;6241382;23;20405;-82
2021/06/30 04:29:12;;;;;;;0.87;0.87;;;14.20;99.90;;;;;;6241999;23;20452;-82
2021/06/30 04:31:43;;;;;;;0.90;0.90;;;14.20;99.90;;;;;;6241129;23;20520;-81
2021/06/30 04:34:11;;;;;;;1.20;0.93;;;14.30;99.90;;;;;;6240714;23;20966;-82
2021/06/30 04:36:38;;;;;;;0.80;0.80;;;14.40;99.90;;;;;;6240804;23;20410;-81
2021/06/30 04:39:05;;;;;;;1.37;0.93;;;14.40;99.90;;;;;;6240893;23;20509;-81
2021/06/30 04:41:32;;;;;;;0.70;0.70;;;14.30;99.90;;;;;;6239238;23;20504;-83
2021/06/30 04:43:59;;;;;;;0.80;0.80;;;14.40;99.90;;;;;;6240216;23;20405;-81
2021/06/30 04:46:25;;;;;;;1.17;1.17;;;14.40;99.90;;;;;;6236895;23;20538;-84
2021/06/30 04:48:52;;;;;;;1.37;1.00;;;14.50;99.90;;;;;;6237859;23;20472;-82
2021/06/30 04:51:21;;;;;;;0.80;0.80;;;14.50;99.90;;;;;;6239153;23;20398;-81
2021/06/30 04:53:50;;;;;;;0.90;0.90;;;14.50;99.90;;;;;;6239150;23;20441;-82
2021/06/30 04:56:26;;;;;;;1.27;1.10;;;14.60;99.90;;;;;;6241697;23;20438;-82
2021/06/30 04:58:53;;;;;;;1.03;0.93;;;14.60;99.90;;;;;;6240808;23;20443;-82
2021/06/30 05:01:20;;;;;;;0.77;0.77;;;14.60;99.90;;;;;;6240394;23;20425;-81
2021/06/30 05:03:46;;;;;;;1.13;0.83;;;14.70;99.90;;;;;;6241248;23;20477;-81
2021/06/30 05:06:13;;;;;;;0.90;0.80;;;14.80;99.90;;;;;;6241473;23;20466;-80
2021/06/30 05:08:41;;;;;;;0.97;0.87;;;14.80;99.90;;;;;;6240218;23;20543;-81
2021/06/30 05:11:08;;;;;;;1.60;1.50;;;14.80;99.90;;;;;;6241098;23;20476;-82
2021/06/30 05:13:35;;;;;;;1.27;1.17;;;14.80;99.90;;;;;;6240215;23;20398;-82
2021/06/30 05:16:01;;;;;;;0.70;0.70;;;14.90;99.90;;;;;;6240671;23;20411;-81
2021/06/30 05:18:28;;;;;;;1.33;1.23;;;14.90;99.90;;;;;;6239327;23;20396;-81
2021/06/30 05:20:55;;;;;;;0.80;0.80;;;14.90;99.90;;;;;;6240893;23;20448;-83
2021/06/30 05:23:21;;;;;;;0.73;0.73;;;14.90;99.90;;;;;;6240892;23;20440;-82
2021/06/30 05:25:50;;;;;;;1.17;1.13;;;15.00;99.90;;;;;;6240590;23;20437;-81
2021/06/30 05:28:17;;;;;;;1.17;0.90;;;15.00;99.90;;;;;;6240833;23;20409;-81
2021/06/30 05:30:44;;;;;;;0.90;0.90;;;15.00;99.90;;;;;;6239925;23;20434;-82
2021/06/30 05:33:12;;;;;;;0.93;0.93;;;15.00;99.90;;;;;;6233746;23;20405;-85
2021/06/30 05:35:38;;;;;;;0.90;0.90;;;15.00;99.90;;;;;;6222161;23;20416;-85
2021/06/30 05:38:05;;;;;;;1.10;1.00;;;15.00;99.90;;;;;;6220888;23;20409;-85
2021/06/30 05:40:32;;;;;;;1.50;1.40;;;15.00;99.90;;;;;;6220913;23;20445;-85
2021/06/30 05:43:00;;;;;;;1.57;1.37;;;15.00;99.90;;;;;;6221093;23;20415;-86
2021/06/30 05:45:27;;;;;;;1.20;1.10;;;14.90;99.90;;;;;;6221505;23;20415;-85
2021/06/30 05:47:54;;;;;;;0.80;0.80;;;14.90;99.90;;;;;;6221947;23;20415;-85
2021/06/30 05:50:21;;;;;;;1.13;1.00;;;14.90;99.90;;;;;;6221335;23;20429;-84
2021/06/30 05:52:48;;;;;;;1.47;1.30;;;14.90;99.90;;;;;;6220933;23;20413;-85
2021/06/30 05:55:15;;;;;;;1.73;1.10;;;15.00;99.90;;;;;;6221635;23;20431;-84
2021/06/30 05:57:42;;;;;;;1.53;1.43;;;15.10;99.90;;;;;;6221996;23;20416;-85
2021/06/30 06:00:12;;;;;;;2.00;1.90;;;15.10;99.90;;;;;;6221545;23;20429;-83
2021/06/30 06:02:39;;;;;;;1.60;1.50;;;15.10;99.90;;;;;;6221866;23;20390;-85
2021/06/30 06:05:07;;;;;;;2.10;1.63;;;15.10;99.90;;;;;;6221851;23;20412;-85
2021/06/30 06:07:34;;;;;;;1.00;0.90;;;15.10;99.90;;;;;;6221021;23;20410;-85
2021/06/30 06:10:01;;;;;;;0.87;0.87;;;15.20;99.90;;;;;;6221548;23;20464;-84
2021/06/30 06:12:28;;;;;;;0.87;0.80;;;15.20;99.90;;;;;;6220757;23;20500;-84
2021/06/30 06:14:55;;;;;;;0.80;0.80;;;15.30;99.90;;;;;;6225460;23;20413;-83
2021/06/30 06:17:23;;;;;;;0.77;0.77;;;15.30;99.90;;;;;;6238759;23;20397;-84
2021/06/30 06:19:50;;;;;;;1.10;1.00;;;15.40;99.90;;;;;;6241134;23;20871;-82
2021/06/30 06:22:17;;;;;;;2.20;0.67;;;15.50;99.90;;;;;;6242359;23;20455;-82
2021/06/30 06:24:43;;;;;;;4.20;1.07;;;15.60;99.90;;;;;;6241563;23;20439;-82
2021/06/30 06:27:10;;;;;;;0.60;0.60;;;15.70;99.90;;;;;;6241059;23;20439;-82
2021/06/30 06:29:37;;;;;;;4.47;1.10;;;15.80;99.90;;;;;;6241335;23;20502;-82
2021/06/30 06:32:05;;;;;;;0.70;0.53;;;15.90;99.90;;;;;;6241739;23;20472;-82
2021/06/30 06:34:33;;;;;;;0.80;0.80;;;16.00;99.90;;;;;;6240393;23;20442;-80
2021/06/30 06:37:01;;;;;;;0.60;0.60;;;16.10;99.90;;;;;;6240643;23;20402;-81
2021/06/30 06:39:29;;;;;;;1.20;1.10;;;16.20;99.90;;;;;;6240828;23;20435;-81
2021/06/30 06:41:56;;;;;;;0.80;0.80;;;16.30;99.90;;;;;;6240841;23;20446;-81
2021/06/30 06:44:23;;;;;;;0.80;0.80;;;16.40;99.90;;;;;;6241657;23;20483;-81
2021/06/30 06:46:51;;;;;;;0.73;0.73;;;16.50;99.90;;;;;;6240964;23;20406;-81
2021/06/30 06:49:17;;;;;;;1.90;0.83;;;16.50;99.90;;;;;;6240507;23;20467;-82
2021/06/30 06:51:46;;;;;;;0.50;0.50;;;16.50;99.90;;;;;;6235833;23;20403;-85
2021/06/30 06:54:12;;;;;;;0.67;0.67;;;16.50;99.90;;;;;;6229853;23;20406;-84
2021/06/30 06:56:39;;;;;;;0.50;0.50;;;16.60;99.90;;;;;;6231334;23;20446;-84
2021/06/30 06:59:06;;;;;;;0.80;0.80;;;16.60;99.90;;;;;;6228644;23;20437;-84
2021/06/30 07:01:33;;;;;;;0.60;0.60;;;16.60;99.90;;;;;;6227414;23;20448;-84
2021/06/30 07:04:06;;;;;;;0.87;0.87;;;16.60;99.90;;;;;;6229691;23;20407;-85
2021/06/30 07:06:40;;;;;;;0.50;0.50;;;16.70;99.90;;;;;;6232546;23;20395;-85
2021/06/30 07:09:24;;;;;;;0.73;0.73;;;16.90;99.90;;;;;;6237992;23;20478;-83
2021/06/30 07:11:51;;;;;;;0.60;0.60;;;17.00;99.90;;;;;;6234072;23;20431;-84
2021/06/30 07:14:18;;;;;;;0.63;0.50;;;17.00;99.90;;;;;;6232121;23;20415;-84
2021/06/30 07:16:45;;;;;;;1.10;0.50;;;17.10;99.90;;;;;;6233465;23;20440;-84
2021/06/30 07:19:12;;;;;;;1.60;0.43;;;17.20;99.90;;;;;;6232678;23;20423;-83
2021/06/30 07:21:38;;;;;;;0.50;0.50;;;17.40;99.90;;;;;;6233369;23;20478;-84
2021/06/30 07:24:06;;;;;;;0.50;0.50;;;17.60;99.90;;;;;;6232232;23;20451;-85
2021/06/30 07:26:35;;;;;;;1.47;0.70;;;17.60;99.90;;;;;;6220354;23;20794;-85
2021/06/30 07:29:01;;;;;;;0.63;0.60;;;17.70;99.90;;;;;;6217213;23;20433;-85
2021/06/30 07:31:28;;;;;;;0.37;0.37;;;17.80;99.90;;;;;;6215983;23;20413;-84
2021/06/30 07:33:55;;;;;;;0.57;0.57;;;18.00;99.90;;;;;;6216807;23;20745;-85
2021/06/30 07:36:22;;;;;;;0.60;0.50;;;18.20;99.90;;;;;;6216874;23;20439;-85
2021/06/30 07:38:49;;;;;;;0.40;0.40;;;18.40;99.90;;;;;;6217358;23;20428;-84
2021/06/30 07:41:15;;;;;;;1.23;0.50;;;18.50;99.90;;;;;;6217392;23;20962;-85
2021/06/30 07:43:44;;;;;;;1.93;0.47;;;18.60;99.90;;;;;;6216669;23;20419;-84
2021/06/30 07:46:10;;;;;;;1.03;0.67;;;18.60;99.90;;;;;;6217091;23;20412;-85
2021/06/30 07:48:37;;;;;;;0.40;0.40;;;18.60;99.90;;;;;;6217277;23;20418;-85
2021/06/30 07:51:04;;;;;;;1.03;0.63;;;18.60;99.90;;;;;;6217275;23;21001;-85
2021/06/30 07:53:31;;;;;;;0.40;0.30;;;18.60;99.90;;;;;;6217158;23;20408;-84
2021/06/30 07:55:58;;;;;;;0.50;0.50;;;18.50;99.90;;;;;;6217468;23;20471;-84
2021/06/30 07:58:25;;;;;;;0.77;0.77;;;18.60;99.90;;;;;;6217563;23;20821;-85
2021/06/30 08:00:54;;;;;;;0.50;0.40;;;18.70;99.90;;;;;;6217212;23;20447;-86
2021/06/30 08:03:20;;;;;;;0.63;0.47;;;18.80;99.90;;;;;;6216387;23;20739;-85
2021/06/30 08:05:47;;;;;;;0.40;0.40;;;18.80;99.90;;;;;;6217571;23;20922;-84
2021/06/30 08:08:14;;;;;;;0.30;0.20;;;18.60;99.90;;;;;;6217760;23;20495;-84
2021/06/30 08:10:41;;;;;;;0.50;0.40;;;18.50;99.90;;;;;;6213452;23;20811;-82
2021/06/30 08:13:08;;;;;;;0.90;0.40;;;18.30;99.90;;;;;;6215101;23;20887;-83
2021/06/30 08:15:34;;;;;;;0.43;0.30;;;18.00;99.90;;;;;;6215596;23;20490;-83
2021/06/30 08:18:02;;;;;;;0.40;0.30;;;18.00;99.90;;;;;;6215358;23;20879;-83
2021/06/30 08:20:29;;;;;;;0.63;0.47;;;18.00;99.90;;;;;;6215279;23;20434;-83
2021/06/30 08:22:56;;;;;;;1.90;0.40;;;18.00;99.90;;;;;;6215147;23;20443;-83
2021/06/30 08:25:24;;;;;;;0.40;0.40;;;18.00;99.90;;;;;;6215413;23;20418;-83
2021/06/30 08:27:52;;;;;;;0.40;0.40;;;18.00;99.90;;;;;;6216006;23;20743;-83
2021/06/30 08:30:19;;;;;;;0.40;0.40;;;18.00;99.90;;;;;;6215472;23;20451;-83
2021/06/30 08:32:47;;;;;;;0.57;0.40;;;17.90;99.90;;;;;;6215421;23;20407;-83
2021/06/30 08:35:15;;;;;;;0.50;0.47;;;17.80;99.90;;;;;;6216467;23;20548;-83
2021/06/30 08:37:46;;;;;;;0.53;0.53;;;17.80;99.90;;;;;;6216974;23;20407;-84
2021/06/30 08:40:14;;;;;;;0.33;0.33;;;17.80;99.90;;;;;;6215687;23;20429;-83
2021/06/30 08:42:43;;;;;;;0.50;0.50;;;17.80;99.90;;;;;;6215395;23;20447;-84
2021/06/30 08:45:11;;;;;;;0.50;0.50;;;18.00;99.90;;;;;;6215757;23;20412;-83
2021/06/30 08:47:40;;;;;;;0.50;0.50;;;18.20;99.90;;;;;;6215342;23;20712;-83
2021/06/30 08:50:09;;;;;;;1.67;0.40;;;18.20;99.90;;;;;;6215338;23;20432;-84
2021/06/30 08:55:21;;;;;;;0.50;0.50;;;18.60;99.90;;;;;;6222520;23;20440;-85
2021/06/30 08:57:51;;;;;;;0.50;0.50;;;18.70;99.90;;;;;;6215247;23;20419;-84
2021/06/30 09:00:18;;;;;;;0.40;0.37;;;18.70;99.90;;;;;;6215011;23;20510;-83
2021/06/30 09:02:46;;;;;;;0.40;0.40;;;18.80;99.90;;;;;;6214527;23;20459;-83
2021/06/30 09:05:36;;;;;;;0.70;0.70;;;18.90;99.90;;;;;;6214720;23;20415;-84
2021/06/30 09:08:05;;;;;;;0.50;0.50;;;18.90;99.90;;;;;;6214876;23;20399;-83
2021/06/30 09:10:33;;;;;;;1.10;0.63;;;18.80;99.90;;;;;;6214540;23;20443;-84
2021/06/30 09:13:01;;;;;;;1.33;0.70;;;18.50;99.90;;;;;;6214306;23;20451;-83
2021/06/30 09:15:30;;;;;;;0.40;0.40;;;18.30;99.90;;;;;;6214586;23;20412;-84
2021/06/30 09:18:18;;;;;;;0.73;0.50;;;18.30;99.90;;;;;;6214709;23;20483;-84
2021/06/30 09:20:46;;;;;;;1.17;0.80;;;18.30;99.90;;;;;;6214196;23;20438;-84
2021/06/30 09:23:16;;;;;;;0.67;0.67;;;18.30;99.90;;;;;;6214432;23;20448;-83
2021/06/30 09:25:45;;;;;;;0.40;0.40;;;18.40;99.90;;;;;;6214476;23;20477;-84
2021/06/30 09:28:15;;;;;;;1.40;0.50;;;18.40;99.90;;;;;;6214617;23;20486;-84
2021/06/30 09:31:01;;;;;;;0.70;0.70;;;18.50;99.90;;;;;;6214567;23;20444;-84
2021/06/30 09:33:50;;;;;;;0.80;0.80;;;18.60;99.90;;;;;;6214391;23;20804;-84
2021/06/30 09:36:16;;;;;;;0.60;0.60;;;18.90;99.90;;;;;;6214513;23;20399;-83
2021/06/30 09:38:45;;;;;;;0.60;0.60;;;19.10;99.90;;;;;;6214129;23;20409;-84
2021/06/30 09:41:26;;;;;;;0.70;0.70;;;19.20;99.90;;;;;;6214167;23;20409;-84
2021/06/30 09:44:03;;;;;;;0.80;0.80;;;19.30;99.90;;;;;;6228531;23;20430;-84
2021/06/30 09:46:30;;;;;;;0.30;0.30;;;19.40;99.90;;;;;;6214087;23;20814;-84
2021/06/30 09:49:00;;;;;;;0.70;0.70;;;19.30;99.90;;;;;;6214504;23;20963;-83
2021/06/30 09:51:28;;;;;;;0.60;0.60;;;19.20;99.90;;;;;;6214313;23;20725;-83
2021/06/30 09:54:04;;;;;;;0.60;0.60;;;19.10;99.90;;;;;;6214969;23;20616;-84
2021/06/30 09:56:34;;;;;;;0.90;0.50;;;19.00;99.90;;;;;;6216061;23;20482;-84
2021/06/30 09:59:17;;;;;;;0.60;0.60;;;18.90;99.90;;;;;;6216425;23;20519;-83
2021/06/30 10:01:44;;;;;;;0.60;0.60;;;18.70;99.90;;;;;;6216275;23;20776;-84
2021/06/30 10:04:23;;;;;;;0.83;0.50;;;18.70;99.90;;;;;;6216334;23;20499;-84
2021/06/30 10:06:50;;;;;;;0.40;0.40;;;18.70;99.90;;;;;;6216140;23;20404;-84
2021/06/30 10:09:25;;;;;;;0.40;0.40;;;18.90;99.90;;;;;;6216275;23;20442;-83
2021/06/30 10:12:10;;;;;;;1.63;0.50;;;19.10;99.90;;;;;;6215871;23;20396;-84
2021/06/30 10:14:38;;;;;;;0.50;0.40;;;19.30;99.90;;;;;;6216475;23;20413;-84
2021/06/30 10:17:07;;;;;;;0.83;0.70;;;19.40;99.90;;;;;;6216736;23;20432;-84
2021/06/30 10:19:35;;;;;;;0.50;0.40;;;19.70;99.90;;;;;;6215832;23;20947;-84
2021/06/30 10:22:02;;;;;;;0.40;0.40;;;20.00;99.90;;;;;;6216018;23;20448;-84
2021/06/30 10:24:30;;;;;;;0.50;0.50;;;20.30;99.90;;;;;;6216314;23;20405;-84
2021/06/30 10:26:58;;;;;;;0.73;0.63;;;20.40;99.90;;;;;;6216371;23;20421;-84
2021/06/30 10:29:27;;;;;;;0.87;0.70;;;20.50;98.70;;;;;;6216071;23;20425;-84
2021/06/30 10:31:57;;;;;;;0.70;0.43;;;20.40;97.90;;;;;;6217808;23;20418;-82
2021/06/30 10:34:35;;;;;;;0.57;0.57;;;20.30;97.10;;;;;;6225163;23;20859;-83
2021/06/30 10:37:02;;;;;;;0.67;0.67;;;20.20;97.90;;;;;;6216296;23;20393;-83
2021/06/30 10:39:47;;;;;;;0.73;0.73;;;20.00;98.00;;;;;;6215898;23;20429;-83
2021/06/30 10:42:31;;;;;;;0.90;0.60;;;20.00;98.00;;;;;;6215793;23;20431;-83
2021/06/30 10:45:01;;;;;;;1.13;0.50;;;20.10;98.30;;;;;;6216890;23;20423;-83
2021/06/30 10:47:38;;;;;;;0.70;0.70;;;20.10;96.80;;;;;;6216233;23;20418;-84
2021/06/30 10:50:26;;;;;;;0.40;0.40;;;20.00;96.70;;;;;;6215575;23;20450;-84
2021/06/30 10:52:55;;;;;;;0.40;0.40;;;20.00;96.90;;;;;;6215786;23;20414;-84
2021/06/30 10:55:51;;;;;;;0.57;0.57;;;20.00;97.30;;;;;;6215781;23;20470;-83
2021/06/30 10:58:19;;;;;;;0.70;0.70;;;20.10;98.30;;;;;;6216229;23;20527;-84
2021/06/30 11:00:48;;;;;;;0.80;0.80;;;20.20;96.60;;;;;;6216069;23;20470;-84
2021/06/30 11:03:30;;;;;;;0.70;0.70;;;20.20;97.50;;;;;;6215611;23;20445;-85
2021/06/30 11:06:18;;;;;;;1.37;0.60;;;20.40;97.20;;;;;;6215261;23;20437;-83
2021/06/30 11:08:49;;;;;;;0.60;0.43;;;20.40;96.90;;;;;;6215700;23;20415;-84
2021/06/30 11:11:17;;;;;;;0.83;0.50;;;20.10;96.60;;;;;;6215615;23;20408;-84
2021/06/30 11:13:59;;;;;;;1.10;1.00;;;20.00;98.00;;;;;;6215386;23;20420;-84
2021/06/30 11:16:47;;;;;;;0.80;0.80;;;19.80;99.90;;;;;;6216007;23;20468;-83
2021/06/30 11:19:39;;;;;;;1.00;0.90;;;19.60;99.90;;;;;;6215841;23;20437;-84
2021/06/30 11:22:08;;;;;;;0.90;0.90;;;19.30;99.90;;;;;;6222147;23;20429;-84
2021/06/30 11:24:47;;;;;;;3.33;0.93;;;19.10;99.90;;;;;;6217232;23;20413;-83
2021/06/30 11:27:48;;;;;;;1.00;0.90;;;19.30;99.90;;;;;;6216045;23;20400;-84
2021/06/30 11:30:34;;;;;;;0.80;0.70;;;19.70;99.90;;;;;;6094173;23;20430;-84
2021/06/30 11:33:01;;;;;;;0.60;0.60;;;20.50;99.90;;;;;;6205731;23;20466;-84
2021/06/30 11:35:32;;;;;;;0.50;0.50;;;21.30;99.90;;;;;;6215279;23;20413;-84
2021/06/30 11:38:12;;;;;;;2.40;0.80;;;22.00;99.90;;;;;;6215226;23;20395;-84
2021/06/30 11:40:51;;;;;;;0.80;0.80;;;22.30;97.70;;;;;;6215469;23;20432;-84
2021/06/30 11:43:22;;;;;;;2.57;2.00;;;22.40;98.10;;;;;;6216116;23;20426;-83
2021/06/30 11:45:48;;;;;;;4.30;1.40;;;21.60;99.90;;;;;;6218098;23;20394;-83
2021/06/30 11:48:16;;;;;;;3.03;1.30;;;20.60;99.90;;;;;;6218136;23;20401;-84
2021/06/30 11:50:52;;;;;;;1.00;0.90;;;19.60;99.90;;;;;;6215330;23;20914;-84
2021/06/30 11:53:35;;;;;;;1.00;1.00;;;18.80;99.90;;;;;;6215417;23;20396;-84
2021/06/30 11:56:04;;;;;;;1.73;1.00;;;18.10;99.90;;;;;;6216441;23;20403;-83
2021/06/30 11:58:52;;;;;;;0.77;0.50;;;17.80;99.90;;;;;;6215462;23;20911;-84
2021/06/30 12:01:27;;;;;;;1.17;0.67;;;17.60;99.90;;;;;;6215142;23;20410;-83
2021/06/30 12:04:18;;;;;;;0.70;0.70;;;17.50;99.90;;;;;;6215239;23;20431;-85
2021/06/30 12:06:46;;;;;;;0.80;0.80;;;17.30;99.90;;;;;;6215291;23;20732;-85
2021/06/30 12:09:19;;;;;;;0.60;0.60;;;17.40;99.90;;;;;;6214615;23;20470;-85
2021/06/30 12:11:49;;;;;;;0.90;0.90;;;17.70;99.90;;;;;;6225481;23;20427;-84
2021/06/30 12:14:17;;;;;;;0.80;0.80;;;18.10;99.90;;;;;;6215184;23;20406;-85
2021/06/30 12:16:47;;;;;;;0.73;0.73;;;18.60;99.90;;;;;;6214823;23;20419;-85
2021/06/30 12:19:16;;;;;;;1.53;0.70;;;19.20;99.90;;;;;;6215086;23;20483;-84
2021/06/30 12:21:44;;;;;;;0.60;0.60;;;19.70;99.90;;;;;;6214740;23;20413;-84
2021/06/30 12:24:19;;;;;;;0.80;0.80;;;20.40;99.90;;;;;;6214942;23;20799;-84
2021/06/30 12:26:59;;;;;;;0.93;0.93;;;21.10;99.90;;;;;;6215077;23;20429;-84
2021/06/30 12:29:26;;;;;;;0.80;0.80;;;21.70;99.90;;;;;;6214620;23;20430;-84
2021/06/30 12:31:53;;;;;;;1.17;1.07;;;22.00;99.90;;;;;;6214362;23;20414;-84
2021/06/30 12:34:20;;;;;;;1.10;1.03;;;22.20;99.90;;;;;;6214830;23;20417;-85
2021/06/30 12:36:47;;;;;;;0.70;0.70;;;22.20;99.90;;;;;;6214512;23;20425;-85
2021/06/30 12:39:22;;;;;;;0.90;0.80;;;22.00;99.90;;;;;;6214244;23;20441;-83
2021/06/30 12:41:59;;;;;;;1.00;1.00;;;21.70;99.90;;;;;;6214654;23;20397;-84
2021/06/30 12:44:27;;;;;;;1.00;1.00;;;21.50;99.90;;;;;;6214912;23;20724;-84
2021/06/30 12:47:11;;;;;;;0.93;0.80;;;20.90;99.90;;;;;;6214716;23;20405;-85
2021/06/30 12:49:38;;;;;;;0.90;0.90;;;20.10;99.90;;;;;;6214644;23;20463;-84
2021/06/30 12:52:05;;;;;;;1.20;0.87;;;19.90;99.90;;;;;;6214078;23;21007;-84
2021/06/30 12:54:33;;;;;;;0.80;0.63;;;20.00;99.90;;;;;;6214716;23;20500;-84
2021/06/30 12:57:03;;;;;;;0.83;0.83;;;20.30;99.90;;;;;;6214805;23;20500;-83
2021/06/30 12:59:30;;;;;;;1.03;1.00;;;20.60;99.90;;;;;;6216218;23;20431;-83
2021/06/30 13:01:57;;;;;;;0.77;0.77;;;20.90;99.90;;;;;;6228898;23;20411;-83